sensor_id;sensor_type;location;lat;lon;timestamp;P1;durP1;ratioP1;P2;durP2;ratioP2
70122;SDS011;57489;37.404;24.920;2022-09-16T00:04:34;5.57;;;3.03;;
70122;SDS011;57489;37.404;24.920;2022-09-16T00:09:36;4.97;;;2.60;;
70122;SDS011;57489;37.404;24.920;2022-09-16T00:14:37;5.10;;;3.00;;
70122;SDS011;57489;37.404;24.920;2022-09-16T00:19:37;5.20;;;2.88;;
70122;SDS011;57489;37.404;24.920;2022-09-16T00:24:38;5.47;;;3.00;;
70122;SDS011;57489;37.404;24.920;2022-09-16T00:29:38;5.70;;;3.10;;
70122;SDS011;57489;37.404;24.920;2022-09-16T00:34:39;5.27;;;2.73;;
70122;SDS011;57489;37.404;24.920;2022-09-16T00:39:39;5.80;;;2.73;;
70122;SDS011;57489;37.404;24.920;2022-09-16T00:44:59;5.57;;;2.63;;
70122;SDS011;57489;37.404;24.920;2022-09-16T00:50:07;5.97;;;3.15;;
70122;SDS011;57489;37.404;24.920;2022-09-16T00:55:28;5.47;;;3.45;;
70122;SDS011;57489;37.404;24.920;2022-09-16T01:00:32;5.57;;;3.40;;
70122;SDS011;57489;37.404;24.920;2022-09-16T01:05:33;5.13;;;3.05;;
70122;SDS011;57489;37.404;24.920;2022-09-16T01:10:35;5.27;;;3.17;;
70122;SDS011;57489;37.404;24.920;2022-09-16T01:15:52;6.18;;;3.42;;
70122;SDS011;57489;37.404;24.920;2022-09-16T01:21:23;5.20;;;2.67;;
70122;SDS011;57489;37.404;24.920;2022-09-16T01:37:46;5.80;;;3.37;;
70122;SDS011;57489;37.404;24.920;2022-09-16T01:48:36;5.25;;;3.03;;
70122;SDS011;57489;37.404;24.920;2022-09-16T01:53:43;5.97;;;2.87;;
70122;SDS011;57489;37.404;24.920;2022-09-16T01:58:56;5.10;;;2.97;;
70122;SDS011;57489;37.404;24.920;2022-09-16T02:04:19;5.18;;;3.10;;
70122;SDS011;57489;37.404;24.920;2022-09-16T02:09:36;5.60;;;3.17;;
70122;SDS011;57489;37.404;24.920;2022-09-16T02:14:41;6.50;;;3.50;;
70122;SDS011;57489;37.404;24.920;2022-09-16T02:19:45;5.38;;;3.35;;
70122;SDS011;57489;37.404;24.920;2022-09-16T02:24:50;5.47;;;2.97;;
70122;SDS011;57489;37.404;24.920;2022-09-16T02:29:54;5.20;;;3.17;;
70122;SDS011;57489;37.404;24.920;2022-09-16T02:34:59;5.15;;;3.20;;
70122;SDS011;57489;37.404;24.920;2022-09-16T02:40:03;6.10;;;2.85;;
70122;SDS011;57489;37.404;24.920;2022-09-16T02:45:08;5.57;;;3.60;;
70122;SDS011;57489;37.404;24.920;2022-09-16T02:50:22;6.40;;;3.30;;
70122;SDS011;57489;37.404;24.920;2022-09-16T02:55:41;6.57;;;3.47;;
70122;SDS011;57489;37.404;24.920;2022-09-16T03:00:47;5.40;;;3.28;;
70122;SDS011;57489;37.404;24.920;2022-09-16T03:11:06;5.68;;;3.30;;
70122;SDS011;57489;37.404;24.920;2022-09-16T03:16:22;5.63;;;3.03;;
70122;SDS011;57489;37.404;24.920;2022-09-16T03:37:12;8.60;;;3.30;;
70122;SDS011;57489;37.404;24.920;2022-09-16T03:42:14;6.40;;;3.27;;
70122;SDS011;57489;37.404;24.920;2022-09-16T03:47:16;6.88;;;2.95;;
70122;SDS011;57489;37.404;24.920;2022-09-16T03:52:17;5.70;;;3.47;;
70122;SDS011;57489;37.404;24.920;2022-09-16T03:57:18;5.30;;;2.67;;
70122;SDS011;57489;37.404;24.920;2022-09-16T04:02:18;5.23;;;3.13;;
70122;SDS011;57489;37.404;24.920;2022-09-16T04:07:19;5.43;;;3.60;;
70122;SDS011;57489;37.404;24.920;2022-09-16T04:12:19;6.03;;;3.10;;
70122;SDS011;57489;37.404;24.920;2022-09-16T04:17:21;5.88;;;3.03;;
70122;SDS011;57489;37.404;24.920;2022-09-16T04:22:22;5.23;;;3.50;;
70122;SDS011;57489;37.404;24.920;2022-09-16T04:27:23;6.20;;;3.40;;
70122;SDS011;57489;37.404;24.920;2022-09-16T04:32:23;6.47;;;3.00;;
70122;SDS011;57489;37.404;24.920;2022-09-16T04:37:24;5.60;;;3.03;;
70122;SDS011;57489;37.404;24.920;2022-09-16T04:42:24;5.30;;;3.30;;
70122;SDS011;57489;37.404;24.920;2022-09-16T04:47:25;6.37;;;3.20;;
70122;SDS011;57489;37.404;24.920;2022-09-16T04:52:25;7.43;;;3.53;;
70122;SDS011;57489;37.404;24.920;2022-09-16T04:57:29;13.27;;;3.30;;
70122;SDS011;57489;37.404;24.920;2022-09-16T05:02:30;7.03;;;3.60;;
70122;SDS011;57489;37.404;24.920;2022-09-16T05:07:30;13.43;;;4.07;;
70122;SDS011;57489;37.404;24.920;2022-09-16T05:12:31;11.30;;;4.07;;
70122;SDS011;57489;37.404;24.920;2022-09-16T05:17:31;18.97;;;5.57;;
70122;SDS011;57489;37.404;24.920;2022-09-16T05:22:32;15.43;;;5.63;;
70122;SDS011;57489;37.404;24.920;2022-09-16T05:27:32;16.33;;;5.50;;
70122;SDS011;57489;37.404;24.920;2022-09-16T05:32:33;20.60;;;5.70;;
70122;SDS011;57489;37.404;24.920;2022-09-16T05:37:34;14.67;;;5.60;;
70122;SDS011;57489;37.404;24.920;2022-09-16T05:42:34;18.63;;;5.53;;
70122;SDS011;57489;37.404;24.920;2022-09-16T05:47:34;14.57;;;5.90;;
70122;SDS011;57489;37.404;24.920;2022-09-16T05:52:35;18.10;;;4.90;;
70122;SDS011;57489;37.404;24.920;2022-09-16T05:57:35;8.53;;;3.70;;
70122;SDS011;57489;37.404;24.920;2022-09-16T06:02:36;8.13;;;3.20;;
70122;SDS011;57489;37.404;24.920;2022-09-16T06:07:36;8.43;;;3.70;;
70122;SDS011;57489;37.404;24.920;2022-09-16T06:12:37;6.80;;;3.27;;
70122;SDS011;57489;37.404;24.920;2022-09-16T06:17:37;6.03;;;3.40;;
70122;SDS011;57489;37.404;24.920;2022-09-16T06:22:38;5.30;;;2.47;;
70122;SDS011;57489;37.404;24.920;2022-09-16T06:27:38;6.60;;;3.67;;
70122;SDS011;57489;37.404;24.920;2022-09-16T06:32:39;6.32;;;2.80;;
70122;SDS011;57489;37.404;24.920;2022-09-16T06:37:39;5.07;;;2.60;;
70122;SDS011;57489;37.404;24.920;2022-09-16T06:42:40;6.30;;;2.87;;
70122;SDS011;57489;37.404;24.920;2022-09-16T06:47:40;5.47;;;2.40;;
70122;SDS011;57489;37.404;24.920;2022-09-16T06:52:41;4.63;;;2.23;;
70122;SDS011;57489;37.404;24.920;2022-09-16T06:57:41;4.30;;;2.20;;
70122;SDS011;57489;37.404;24.920;2022-09-16T07:02:42;4.93;;;2.40;;
70122;SDS011;57489;37.404;24.920;2022-09-16T07:07:43;4.13;;;2.20;;
70122;SDS011;57489;37.404;24.920;2022-09-16T07:12:43;8.30;;;2.27;;
70122;SDS011;57489;37.404;24.920;2022-09-16T07:17:44;7.03;;;2.50;;
70122;SDS011;57489;37.404;24.920;2022-09-16T07:22:44;10.63;;;2.30;;
70122;SDS011;57489;37.404;24.920;2022-09-16T07:27:45;9.03;;;2.77;;
70122;SDS011;57489;37.404;24.920;2022-09-16T07:32:45;5.90;;;2.30;;
70122;SDS011;57489;37.404;24.920;2022-09-16T07:37:46;5.30;;;2.03;;
70122;SDS011;57489;37.404;24.920;2022-09-16T07:42:46;5.33;;;2.20;;
70122;SDS011;57489;37.404;24.920;2022-09-16T07:47:47;6.13;;;2.73;;
70122;SDS011;57489;37.404;24.920;2022-09-16T07:52:52;4.47;;;2.27;;
70122;SDS011;57489;37.404;24.920;2022-09-16T07:57:53;4.93;;;2.28;;
70122;SDS011;57489;37.404;24.920;2022-09-16T08:02:57;5.33;;;2.33;;
70122;SDS011;57489;37.404;24.920;2022-09-16T08:07:57;5.70;;;2.35;;
70122;SDS011;57489;37.404;24.920;2022-09-16T08:12:58;5.10;;;2.03;;
70122;SDS011;57489;37.404;24.920;2022-09-16T08:17:58;8.50;;;2.37;;
70122;SDS011;57489;37.404;24.920;2022-09-16T08:22:59;5.37;;;2.10;;
70122;SDS011;57489;37.404;24.920;2022-09-16T08:27:59;5.83;;;2.20;;
70122;SDS011;57489;37.404;24.920;2022-09-16T08:33:00;7.20;;;1.90;;
70122;SDS011;57489;37.404;24.920;2022-09-16T08:38:00;3.63;;;1.63;;
70122;SDS011;57489;37.404;24.920;2022-09-16T08:43:03;7.13;;;1.97;;
70122;SDS011;57489;37.404;24.920;2022-09-16T08:48:14;5.38;;;2.20;;
70122;SDS011;57489;37.404;24.920;2022-09-16T08:53:38;7.07;;;2.03;;
70122;SDS011;57489;37.404;24.920;2022-09-16T08:58:44;8.20;;;2.75;;
70122;SDS011;57489;37.404;24.920;2022-09-16T09:03:46;7.93;;;2.40;;
70122;SDS011;57489;37.404;24.920;2022-09-16T09:08:54;7.47;;;2.47;;
70122;SDS011;57489;37.404;24.920;2022-09-16T09:20:03;8.85;;;3.05;;
70122;SDS011;57489;37.404;24.920;2022-09-16T09:30:54;6.15;;;2.80;;
70122;SDS011;57489;37.404;24.920;2022-09-16T09:56:39;5.50;;;1.95;;
70122;SDS011;57489;37.404;24.920;2022-09-16T10:01:42;5.83;;;2.27;;
70122;SDS011;57489;37.404;24.920;2022-09-16T10:06:43;5.13;;;2.10;;
70122;SDS011;57489;37.404;24.920;2022-09-16T10:11:54;5.68;;;2.15;;
70122;SDS011;57489;37.404;24.920;2022-09-16T10:16:55;5.57;;;2.20;;
70122;SDS011;57489;37.404;24.920;2022-09-16T10:22:09;5.63;;;1.70;;
70122;SDS011;57489;37.404;24.920;2022-09-16T10:27:22;5.30;;;2.13;;
70122;SDS011;57489;37.404;24.920;2022-09-16T10:32:24;5.03;;;2.10;;
70122;SDS011;57489;37.404;24.920;2022-09-16T10:37:25;6.27;;;2.10;;
70122;SDS011;57489;37.404;24.920;2022-09-16T10:42:28;6.10;;;2.08;;
70122;SDS011;57489;37.404;24.920;2022-09-16T10:47:30;5.00;;;1.70;;
70122;SDS011;57489;37.404;24.920;2022-09-16T10:52:42;7.10;;;2.13;;
70122;SDS011;57489;37.404;24.920;2022-09-16T10:57:44;7.47;;;2.47;;
70122;SDS011;57489;37.404;24.920;2022-09-16T11:03:03;5.57;;;2.13;;
70122;SDS011;57489;37.404;24.920;2022-09-16T11:08:26;5.07;;;2.40;;
70122;SDS011;57489;37.404;24.920;2022-09-16T11:19:17;8.33;;;2.23;;
70122;SDS011;57489;37.404;24.920;2022-09-16T11:29:48;8.35;;;2.67;;
70122;SDS011;57489;37.404;24.920;2022-09-16T11:40:33;8.20;;;2.23;;
70122;SDS011;57489;37.404;24.920;2022-09-16T11:45:57;9.32;;;2.80;;
70122;SDS011;57489;37.404;24.920;2022-09-16T12:07:03;7.57;;;2.75;;
70122;SDS011;57489;37.404;24.920;2022-09-16T12:12:15;8.40;;;2.20;;
70122;SDS011;57489;37.404;24.920;2022-09-16T12:17:20;6.63;;;2.33;;
70122;SDS011;57489;37.404;24.920;2022-09-16T12:33:18;3.67;;;1.70;;
70122;SDS011;57489;37.404;24.920;2022-09-16T12:38:20;6.03;;;2.03;;
70122;SDS011;57489;37.404;24.920;2022-09-16T12:48:51;5.53;;;2.20;;
70122;SDS011;57489;37.404;24.920;2022-09-16T12:54:05;7.30;;;2.35;;
70122;SDS011;57489;37.404;24.920;2022-09-16T13:04:43;5.95;;;2.20;;
70122;SDS011;57489;37.404;24.920;2022-09-16T13:09:47;6.85;;;1.83;;
70122;SDS011;57489;37.404;24.920;2022-09-16T13:14:51;7.73;;;2.80;;
70122;SDS011;57489;37.404;24.920;2022-09-16T13:20:20;7.65;;;2.42;;
70122;SDS011;57489;37.404;24.920;2022-09-16T13:25:32;6.83;;;2.60;;
70122;SDS011;57489;37.404;24.920;2022-09-16T13:30:41;9.30;;;2.67;;
70122;SDS011;57489;37.404;24.920;2022-09-16T13:35:43;7.67;;;2.60;;
70122;SDS011;57489;37.404;24.920;2022-09-16T13:46:01;8.32;;;2.20;;
70122;SDS011;57489;37.404;24.920;2022-09-16T13:51:09;8.23;;;2.10;;
70122;SDS011;57489;37.404;24.920;2022-09-16T13:56:38;6.15;;;2.17;;
70122;SDS011;57489;37.404;24.920;2022-09-16T14:01:44;5.03;;;2.08;;
70122;SDS011;57489;37.404;24.920;2022-09-16T14:12:25;6.68;;;2.00;;
70122;SDS011;57489;37.404;24.920;2022-09-16T14:17:51;4.68;;;2.00;;
70122;SDS011;57489;37.404;24.920;2022-09-16T14:23:01;5.57;;;2.00;;
70122;SDS011;57489;37.404;24.920;2022-09-16T14:28:19;7.47;;;1.97;;
70122;SDS011;57489;37.404;24.920;2022-09-16T14:33:25;6.03;;;2.25;;
70122;SDS011;57489;37.404;24.920;2022-09-16T14:38:34;6.82;;;2.22;;
70122;SDS011;57489;37.404;24.920;2022-09-16T14:43:39;7.00;;;2.40;;
70122;SDS011;57489;37.404;24.920;2022-09-16T14:48:40;4.10;;;1.90;;
70122;SDS011;57489;37.404;24.920;2022-09-16T14:53:41;5.60;;;1.90;;
70122;SDS011;57489;37.404;24.920;2022-09-16T14:58:41;5.33;;;2.00;;
70122;SDS011;57489;37.404;24.920;2022-09-16T15:09:05;7.50;;;1.90;;
70122;SDS011;57489;37.404;24.920;2022-09-16T15:14:18;6.97;;;1.98;;
70122;SDS011;57489;37.404;24.920;2022-09-16T15:19:20;8.47;;;2.17;;
70122;SDS011;57489;37.404;24.920;2022-09-16T15:24:25;5.75;;;1.80;;
70122;SDS011;57489;37.404;24.920;2022-09-16T15:29:30;8.52;;;2.00;;
70122;SDS011;57489;37.404;24.920;2022-09-16T15:34:32;4.50;;;1.90;;
70122;SDS011;57489;37.404;24.920;2022-09-16T15:39:37;6.30;;;2.03;;
70122;SDS011;57489;37.404;24.920;2022-09-16T15:44:51;8.60;;;2.07;;
70122;SDS011;57489;37.404;24.920;2022-09-16T15:50:15;6.55;;;2.40;;
70122;SDS011;57489;37.404;24.920;2022-09-16T16:06:15;7.27;;;2.20;;
70122;SDS011;57489;37.404;24.920;2022-09-16T16:11:20;7.57;;;2.22;;
70122;SDS011;57489;37.404;24.920;2022-09-16T16:16:21;7.67;;;2.00;;
70122;SDS011;57489;37.404;24.920;2022-09-16T16:21:21;6.15;;;2.10;;
70122;SDS011;57489;37.404;24.920;2022-09-16T16:26:22;13.30;;;3.00;;
70122;SDS011;57489;37.404;24.920;2022-09-16T16:31:22;8.53;;;2.80;;
70122;SDS011;57489;37.404;24.920;2022-09-16T16:36:23;6.70;;;2.17;;
70122;SDS011;57489;37.404;24.920;2022-09-16T16:41:24;8.53;;;2.30;;
70122;SDS011;57489;37.404;24.920;2022-09-16T16:46:24;10.30;;;3.57;;
70122;SDS011;57489;37.404;24.920;2022-09-16T16:51:25;9.37;;;2.40;;
70122;SDS011;57489;37.404;24.920;2022-09-16T16:56:25;12.07;;;2.77;;
70122;SDS011;57489;37.404;24.920;2022-09-16T17:01:26;7.13;;;2.33;;
70122;SDS011;57489;37.404;24.920;2022-09-16T17:06:27;10.35;;;2.80;;
70122;SDS011;57489;37.404;24.920;2022-09-16T17:11:28;6.93;;;2.30;;
70122;SDS011;57489;37.404;24.920;2022-09-16T17:16:29;5.93;;;2.88;;
70122;SDS011;57489;37.404;24.920;2022-09-16T17:21:31;10.00;;;2.70;;
70122;SDS011;57489;37.404;24.920;2022-09-16T17:26:33;5.70;;;2.47;;
70122;SDS011;57489;37.404;24.920;2022-09-16T17:31:34;8.97;;;2.67;;
70122;SDS011;57489;37.404;24.920;2022-09-16T17:36:36;7.57;;;2.55;;
70122;SDS011;57489;37.404;24.920;2022-09-16T17:41:38;7.00;;;3.60;;
70122;SDS011;57489;37.404;24.920;2022-09-16T17:46:39;10.57;;;3.57;;
70122;SDS011;57489;37.404;24.920;2022-09-16T17:51:40;9.73;;;3.43;;
70122;SDS011;57489;37.404;24.920;2022-09-16T17:56:41;7.60;;;2.92;;
70122;SDS011;57489;37.404;24.920;2022-09-16T18:01:42;7.73;;;2.70;;
70122;SDS011;57489;37.404;24.920;2022-09-16T18:06:43;6.90;;;2.93;;
70122;SDS011;57489;37.404;24.920;2022-09-16T18:11:45;9.88;;;3.35;;
70122;SDS011;57489;37.404;24.920;2022-09-16T18:16:45;9.70;;;2.40;;
70122;SDS011;57489;37.404;24.920;2022-09-16T18:21:46;9.67;;;2.37;;
70122;SDS011;57489;37.404;24.920;2022-09-16T18:26:46;11.97;;;3.00;;
70122;SDS011;57489;37.404;24.920;2022-09-16T18:31:47;7.40;;;2.35;;
70122;SDS011;57489;37.404;24.920;2022-09-16T18:36:48;8.20;;;2.30;;
70122;SDS011;57489;37.404;24.920;2022-09-16T18:41:48;7.10;;;1.90;;
70122;SDS011;57489;37.404;24.920;2022-09-16T18:46:49;8.75;;;3.10;;
70122;SDS011;57489;37.404;24.920;2022-09-16T18:51:51;9.93;;;2.63;;
70122;SDS011;57489;37.404;24.920;2022-09-16T18:56:53;9.55;;;2.47;;
70122;SDS011;57489;37.404;24.920;2022-09-16T19:01:55;7.70;;;2.47;;
70122;SDS011;57489;37.404;24.920;2022-09-16T19:06:58;6.77;;;2.40;;
70122;SDS011;57489;37.404;24.920;2022-09-16T19:12:01;10.32;;;2.95;;
70122;SDS011;57489;37.404;24.920;2022-09-16T19:17:03;9.35;;;2.88;;
70122;SDS011;57489;37.404;24.920;2022-09-16T19:22:04;8.57;;;2.40;;
70122;SDS011;57489;37.404;24.920;2022-09-16T19:27:04;7.43;;;2.78;;
70122;SDS011;57489;37.404;24.920;2022-09-16T19:32:05;8.13;;;3.67;;
70122;SDS011;57489;37.404;24.920;2022-09-16T19:37:06;9.90;;;2.80;;
70122;SDS011;57489;37.404;24.920;2022-09-16T19:42:06;9.85;;;2.92;;
70122;SDS011;57489;37.404;24.920;2022-09-16T19:47:07;6.97;;;2.50;;
70122;SDS011;57489;37.404;24.920;2022-09-16T19:52:07;8.87;;;2.60;;
70122;SDS011;57489;37.404;24.920;2022-09-16T19:57:08;12.57;;;3.20;;
70122;SDS011;57489;37.404;24.920;2022-09-16T20:02:08;9.27;;;2.67;;
70122;SDS011;57489;37.404;24.920;2022-09-16T20:07:09;6.40;;;2.80;;
70122;SDS011;57489;37.404;24.920;2022-09-16T20:12:09;8.50;;;2.73;;
70122;SDS011;57489;37.404;24.920;2022-09-16T20:17:10;10.60;;;3.00;;
70122;SDS011;57489;37.404;24.920;2022-09-16T20:22:10;10.07;;;3.30;;
70122;SDS011;57489;37.404;24.920;2022-09-16T20:27:11;10.30;;;2.97;;
70122;SDS011;57489;37.404;24.920;2022-09-16T20:32:11;9.23;;;2.80;;
70122;SDS011;57489;37.404;24.920;2022-09-16T20:37:12;7.53;;;3.70;;
70122;SDS011;57489;37.404;24.920;2022-09-16T20:42:12;10.90;;;3.17;;
70122;SDS011;57489;37.404;24.920;2022-09-16T20:47:12;11.57;;;3.17;;
70122;SDS011;57489;37.404;24.920;2022-09-16T20:52:13;9.65;;;2.67;;
70122;SDS011;57489;37.404;24.920;2022-09-16T20:57:13;8.30;;;3.10;;
70122;SDS011;57489;37.404;24.920;2022-09-16T21:02:14;9.13;;;3.33;;
70122;SDS011;57489;37.404;24.920;2022-09-16T21:07:14;14.53;;;3.63;;
70122;SDS011;57489;37.404;24.920;2022-09-16T21:12:15;9.37;;;3.27;;
70122;SDS011;57489;37.404;24.920;2022-09-16T21:17:15;10.00;;;2.53;;
70122;SDS011;57489;37.404;24.920;2022-09-16T21:22:16;10.67;;;3.13;;
70122;SDS011;57489;37.404;24.920;2022-09-16T21:27:16;12.50;;;3.20;;
70122;SDS011;57489;37.404;24.920;2022-09-16T21:32:17;6.70;;;2.83;;
70122;SDS011;57489;37.404;24.920;2022-09-16T21:37:17;7.23;;;2.97;;
70122;SDS011;57489;37.404;24.920;2022-09-16T21:42:18;9.73;;;3.53;;
70122;SDS011;57489;37.404;24.920;2022-09-16T21:47:18;8.27;;;3.33;;
70122;SDS011;57489;37.404;24.920;2022-09-16T21:52:19;9.70;;;3.10;;
70122;SDS011;57489;37.404;24.920;2022-09-16T21:57:20;9.43;;;2.90;;
70122;SDS011;57489;37.404;24.920;2022-09-16T22:02:20;9.10;;;3.57;;
70122;SDS011;57489;37.404;24.920;2022-09-16T22:07:21;12.80;;;3.03;;
70122;SDS011;57489;37.404;24.920;2022-09-16T22:12:21;9.20;;;2.97;;
70122;SDS011;57489;37.404;24.920;2022-09-16T22:17:21;6.63;;;2.40;;
70122;SDS011;57489;37.404;24.920;2022-09-16T22:22:22;6.67;;;2.80;;
70122;SDS011;57489;37.404;24.920;2022-09-16T22:27:23;9.00;;;3.23;;
70122;SDS011;57489;37.404;24.920;2022-09-16T22:32:23;10.27;;;3.03;;
70122;SDS011;57489;37.404;24.920;2022-09-16T22:37:24;6.87;;;3.20;;
70122;SDS011;57489;37.404;24.920;2022-09-16T22:42:24;8.40;;;3.00;;
70122;SDS011;57489;37.404;24.920;2022-09-16T22:47:25;7.30;;;2.67;;
70122;SDS011;57489;37.404;24.920;2022-09-16T22:52:27;7.33;;;2.30;;
70122;SDS011;57489;37.404;24.920;2022-09-16T22:57:28;6.57;;;2.72;;
70122;SDS011;57489;37.404;24.920;2022-09-16T23:02:29;8.23;;;2.80;;
70122;SDS011;57489;37.404;24.920;2022-09-16T23:07:29;6.20;;;2.40;;
70122;SDS011;57489;37.404;24.920;2022-09-16T23:12:29;10.53;;;3.77;;
70122;SDS011;57489;37.404;24.920;2022-09-16T23:17:30;6.33;;;2.40;;
70122;SDS011;57489;37.404;24.920;2022-09-16T23:22:30;8.07;;;2.75;;
70122;SDS011;57489;37.404;24.920;2022-09-16T23:27:31;6.40;;;2.60;;
70122;SDS011;57489;37.404;24.920;2022-09-16T23:32:31;6.30;;;2.80;;
70122;SDS011;57489;37.404;24.920;2022-09-16T23:37:32;9.80;;;3.00;;
70122;SDS011;57489;37.404;24.920;2022-09-16T23:42:32;7.63;;;2.50;;
70122;SDS011;57489;37.404;24.920;2022-09-16T23:47:33;8.03;;;3.50;;
70122;SDS011;57489;37.404;24.920;2022-09-16T23:52:33;10.53;;;3.13;;
70122;SDS011;57489;37.404;24.920;2022-09-16T23:57:34;9.45;;;2.80;;
